Weather History for Madisonville, KY

Change the Weather History Date:

Thursday, February 14, 2013

  Actual Average (KOWB) Record (KOWB)
Temperature  
Mean Temperature 47 °F -  
Max Temperature 59 °F 46 °F 72 °F (1962)
Min Temperature 35 °F 28 °F 5 °F (1943)
Degree Days  
Heating Degree Days 18    
Moisture  
Dew Point 39 °F    
Average Humidity 76    
Maximum Humidity 99    
Minimum Humidity 48    
Precipitation  
Precipitation 0.00 in - - ()
Sea Level Pressure  
Sea Level Pressure 29.96 in    
Wind  
Wind Speed 8 mph (WSW)    
Max Wind Speed 17 mph    
Max Gust Speed 22 mph    
Visibility 9 miles    
Events      
Averages and records for this station are not official NWS values.
T = Trace of Precipitation, MM = Missing Value Source: NWS Daily Summary

Daily Weather History Graph

Daily Weather History Graph

Search for Another Location

Airport:

Trip Planner

Search our weather history database for the weather conditions in past years. The results will help you decide how hot, cold, wet, or windy it might be!

Date:

Astronomy

Feb. 14, 2013 Rise Set
Actual Time 6:39 AM CST 5:28 PM CST
Civil Twilight 6:12 AM CST 5:55 PM CST
Nautical Twilight 5:42 AM CST 6:25 PM CST
Astronomical Twilight 5:11 AM CST 6:56 PM CST
Moon 8:48 AM CST (2/14) 10:23 PM CST (2/14)
Length of Visible Light 11h 42m
Length of Day
10h 48m
Waxing Crescent, 22% of the Moon is Illuminated
Feb 14
Waxing Crescent
Feb 17
First Quarter
Feb 25
Full
Mar 4
Last Quarter
Mar 11
New

Hourly Weather History & Observations

Time (CST) Temp. Windchill Dew Point Humidity Pressure Visibility Wind Dir Wind Speed Gust Speed Precip Events Conditions
12:15 AM 36.5 °F 31.0 °F 35.6 °F 97% 29.96 in 10.0 mi SSW 6.9 mph - N/A   Clear
12:35 AM 36.9 °F 31.4 °F 36.0 °F 97% 29.96 in 10.0 mi SSW 6.9 mph - N/A   Clear
12:55 AM 36.7 °F 30.5 °F 36.0 °F 97% 29.96 in 7.0 mi SW 8.1 mph - N/A   Clear
1:15 AM 36.9 °F 30.7 °F 36.1 °F 97% 29.96 in 10.0 mi SSW 8.1 mph - N/A   Clear
1:35 AM 36.7 °F 30.5 °F 36.0 °F 97% 29.96 in 10.0 mi SSW 8.1 mph - N/A   Clear
1:55 AM 36.7 °F 31.2 °F 36.0 °F 97% 29.96 in 10.0 mi SW 6.9 mph - N/A   Clear
2:15 AM 36.7 °F 31.2 °F 36.0 °F 97% 29.96 in 10.0 mi SSW 6.9 mph - N/A   Clear
2:35 AM 36.7 °F 31.2 °F 36.0 °F 97% 29.95 in 10.0 mi SSW 6.9 mph - N/A   Clear
2:55 AM 36.5 °F 31.0 °F 36.0 °F 98% 29.94 in 7.0 mi SSW 6.9 mph - N/A   Clear
3:15 AM 36.5 °F 31.0 °F 35.8 °F 97% 29.94 in 7.0 mi SSW 6.9 mph - N/A   Clear
3:35 AM 36.0 °F 31.1 °F 35.6 °F 99% 29.94 in 7.0 mi SSW 5.8 mph - N/A   Clear
3:55 AM 36.3 °F 31.6 °F 35.6 °F 97% 29.93 in 7.0 mi SSW 5.8 mph - N/A   Clear
4:15 AM 36.1 °F 31.4 °F 35.6 °F 98% 29.93 in 7.0 mi SSW 5.8 mph - N/A   Clear
4:35 AM 36.5 °F 30.3 °F 35.8 °F 97% 29.94 in 7.0 mi SW 8.1 mph - N/A   Clear
4:55 AM 36.5 °F 30.3 °F 35.8 °F 97% 29.94 in 10.0 mi SW 8.1 mph - N/A   Clear
5:15 AM 36.7 °F 30.5 °F 36.0 °F 97% 29.93 in 7.0 mi SSW 8.1 mph - N/A   Clear
5:35 AM 36.7 °F 30.5 °F 36.0 °F 97% 29.93 in 7.0 mi SSW 8.1 mph - N/A   Clear
5:55 AM 36.5 °F 31.0 °F 36.0 °F 98% 29.93 in 7.0 mi SSW 6.9 mph - N/A   Clear
6:15 AM 36.3 °F 30.8 °F 35.6 °F 97% 29.93 in 7.0 mi SW 6.9 mph - N/A   Clear
6:35 AM 35.8 °F 29.4 °F 35.4 °F 99% 29.93 in 7.0 mi SW 8.1 mph - N/A   Clear
6:55 AM 36.9 °F 30.1 °F 36.1 °F 97% 29.93 in 7.0 mi SW 9.2 mph - N/A   Clear
7:15 AM 37.2 °F 32.6 °F 36.5 °F 97% 29.94 in 7.0 mi SW 5.8 mph - N/A   Clear
7:35 AM 38.3 °F 32.5 °F 37.0 °F 95% 29.94 in 10.0 mi SW 8.1 mph - N/A   Clear
7:55 AM 39.7 °F 33.2 °F 38.1 °F 94% 29.95 in 10.0 mi SW 10.4 mph - N/A   Clear
8:15 AM 41.5 °F 34.2 °F 39.0 °F 91% 29.95 in 10.0 mi SW 13.8 mph - N/A   Clear
8:35 AM 43.0 °F 36.8 °F 39.6 °F 88% 29.96 in 10.0 mi SW 11.5 mph - N/A   Clear
8:55 AM 44.6 °F 37.8 °F 39.9 °F 84% 29.96 in 10.0 mi WSW 15.0 mph 19.6 mph N/A   Clear
9:15 AM 45.7 °F 39.5 °F 39.9 °F 80% 29.96 in 10.0 mi WSW 13.8 mph 20.7 mph N/A   Clear
9:35 AM 47.1 °F - 40.8 °F 79% 29.96 in 10.0 mi WSW 16.1 mph 21.9 mph N/A   Clear
9:55 AM 48.2 °F - 40.8 °F 76% 29.96 in 10.0 mi WSW 16.1 mph 19.6 mph N/A   Clear
10:15 AM 49.5 °F - 41.0 °F 73% 29.95 in 10.0 mi WSW 17.3 mph - N/A   Clear
10:35 AM 50.4 °F - 41.2 °F 71% 29.95 in 10.0 mi WSW 16.1 mph - N/A   Clear
10:55 AM 51.6 °F - 41.0 °F 67% 29.95 in 10.0 mi WSW 16.1 mph - N/A   Clear
11:15 AM 52.5 °F - 41.0 °F 65% 29.94 in 10.0 mi WSW 15.0 mph - N/A   Clear
11:35 AM 53.6 °F - 41.4 °F 63% 29.94 in 10.0 mi WSW 10.4 mph 17.3 mph N/A   Clear
11:55 AM 54.5 °F - 41.4 °F 61% 29.94 in 10.0 mi West 15.0 mph 18.4 mph N/A   Clear
12:15 PM 55.0 °F - 41.0 °F 59% 29.94 in 10.0 mi West 12.7 mph 18.4 mph N/A   Clear
12:35 PM 55.9 °F - 41.0 °F 57% 29.93 in 10.0 mi WSW 12.7 mph 16.1 mph N/A   Clear
12:55 PM 57.0 °F - 42.1 °F 57% 29.93 in 10.0 mi WSW 10.4 mph 16.1 mph N/A   Clear
1:15 PM 57.6 °F - 42.1 °F 56% 29.93 in 10.0 mi WSW 9.2 mph - N/A   Clear
1:35 PM 57.7 °F - 41.9 °F 56% 29.92 in 10.0 mi West 11.5 mph - N/A   Clear
1:55 PM 58.1 °F - 40.5 °F 52% 29.93 in 10.0 mi West 9.2 mph 20.7 mph N/A   Clear
2:15 PM 58.5 °F - 40.3 °F 51% 29.92 in 10.0 mi West 11.5 mph 20.7 mph N/A   Clear
2:35 PM 59.4 °F - 41.9 °F 52% 29.93 in 10.0 mi West 13.8 mph - N/A   Clear
2:55 PM 59.4 °F - 41.0 °F 51% 29.93 in 10.0 mi WSW 11.5 mph 17.3 mph N/A   Clear
3:15 PM 59.2 °F - 39.7 °F 49% 29.93 in 10.0 mi West 10.4 mph 20.7 mph N/A   Clear
3:35 PM 59.5 °F - 40.3 °F 49% 29.93 in 10.0 mi West 9.2 mph - N/A   Clear
3:55 PM 59.0 °F - 39.2 °F 48% 29.94 in 10.0 mi West 11.5 mph - N/A   Clear
4:15 PM 59.0 °F - 40.6 °F 51% 29.94 in 10.0 mi West 8.1 mph - N/A   Clear
4:35 PM 57.6 °F - 38.5 °F 49% 29.95 in 10.0 mi West 11.5 mph - N/A   Clear
4:55 PM 56.3 °F - 39.9 °F 54% 29.94 in 10.0 mi WSW 6.9 mph - N/A   Clear
5:15 PM 55.8 °F - 39.6 °F 55% 29.96 in 10.0 mi West 8.1 mph - N/A   Scattered Clouds
5:35 PM 53.6 °F - 39.9 °F 60% 29.96 in 10.0 mi WSW 6.9 mph - N/A   Mostly Cloudy
5:55 PM 52.0 °F - 38.8 °F 61% 29.97 in 10.0 mi WSW 5.8 mph - N/A   Scattered Clouds
6:15 PM 50.9 °F - 38.1 °F 62% 29.98 in 10.0 mi WSW 5.8 mph - N/A   Scattered Clouds
6:35 PM 50.7 °F - 38.3 °F 62% 29.98 in 10.0 mi SW 5.8 mph - N/A   Scattered Clouds
6:55 PM 51.6 °F - 37.9 °F 60% 29.98 in 10.0 mi WSW 4.6 mph - N/A   Mostly Cloudy
7:15 PM 50.5 °F - 38.3 °F 63% 29.99 in 10.0 mi West 4.6 mph - N/A   Overcast
7:35 PM 52.9 °F - 38.1 °F 57% 29.99 in 10.0 mi West 4.6 mph - N/A   Overcast
7:55 PM 48.4 °F - 39.4 °F 71% 30.00 in 10.0 mi North 4.6 mph - N/A   Overcast
8:15 PM 50.2 °F - 38.7 °F 65% 30.00 in 10.0 mi WNW 3.5 mph - N/A   Overcast
8:35 PM 51.3 °F - 37.9 °F 60% 30.00 in 10.0 mi WNW 3.5 mph - N/A   Mostly Cloudy
8:55 PM 51.3 °F - 37.9 °F 60% 30.00 in 10.0 mi NNW 3.5 mph - N/A   Mostly Cloudy
9:15 PM 47.8 °F - 39.4 °F 72% 30.01 in 10.0 mi West 3.5 mph - N/A   Overcast
9:35 PM 47.7 °F - 39.7 °F 74% 30.01 in 10.0 mi NW 3.5 mph - N/A   Mostly Cloudy
9:55 PM 45.9 °F - 39.6 °F 79% 30.01 in 10.0 mi Calm Calm - N/A   Mostly Cloudy
10:15 PM 46.2 °F - 40.1 °F 79% 30.01 in 10.0 mi Calm Calm - N/A   Overcast
10:35 PM 47.1 °F - 40.8 °F 79% 30.01 in 10.0 mi NW 3.5 mph - N/A   Overcast
10:55 PM 46.4 °F 45.2 °F 39.7 °F 78% 30.01 in 10.0 mi NNW 3.5 mph - N/A   Overcast
11:15 PM 46.4 °F 41.5 °F 39.4 °F 77% 30.02 in 10.0 mi North 10.4 mph - N/A   Overcast
11:35 PM 45.7 °F 41.5 °F 38.5 °F 76% 30.03 in 10.0 mi NE 8.1 mph - N/A   Mostly Cloudy
11:55 PM 45.0 °F 40.1 °F 37.9 °F 76% 30.03 in 10.0 mi NNE 9.2 mph - N/A   Mostly Cloudy